Time;durP1;ratioP1;P1;durP2;ratioP2;P2;SDS_P1;SDS_P2;PMS_P1;PMS_P2;Temp;Humidity;BMP_temperature;BMP_pressure;BME280_temperature;BME280_humidity;BME280_pressure;Samples;Min_cycle;Max_cycle;Signal;HPM_P1;HPM_P2
2020/12/24 00:00:16;;;;;;;1.85;0.47;;;;;;;9.01;85.76;98564.16;5036710;28;20042;-78
2020/12/24 00:02:42;;;;;;;1.00;0.60;;;;;;;9.17;86.12;98576.66;5036626;28;20049;-79
2020/12/24 00:05:09;;;;;;;0.55;0.40;;;;;;;9.07;85.51;98578.84;5036414;28;20050;-79
2020/12/24 00:07:36;;;;;;;1.00;0.60;;;;;;;9.07;86.40;98573.41;5036038;28;20510;-79
2020/12/24 00:10:03;;;;;;;0.90;0.60;;;;;;;8.99;86.00;98560.81;5036110;28;20042;-79
2020/12/24 00:12:29;;;;;;;0.90;0.50;;;;;;;8.99;86.23;98541.81;5036242;28;20057;-78
2020/12/24 00:14:55;;;;;;;0.52;0.47;;;;;;;9.10;85.84;98543.19;5036097;28;20042;-78
2020/12/24 00:17:21;;;;;;;3.58;0.65;;;;;;;8.97;86.13;98554.75;5036745;28;20072;-78
2020/12/24 00:19:47;;;;;;;1.52;0.60;;;;;;;9.05;86.08;98559.22;5036162;28;20107;-79
2020/12/24 00:22:14;;;;;;;2.70;0.70;;;;;;;8.94;86.28;98560.53;5036197;28;20049;-78
2020/12/24 00:24:42;;;;;;;2.47;0.63;;;;;;;9.04;86.07;98571.06;5035568;28;20052;-78
2020/12/24 00:27:08;;;;;;;0.90;0.45;;;;;;;9.02;86.33;98570.44;5036159;28;20390;-79
2020/12/24 00:29:36;;;;;;;0.80;0.60;;;;;;;8.92;86.25;98564.47;5035768;28;20050;-78
2020/12/24 00:32:02;;;;;;;1.55;0.60;;;;;;;8.97;85.98;98573.72;5035712;28;20046;-78
2020/12/24 00:34:28;;;;;;;0.98;0.32;;;;;;;8.98;85.94;98572.66;5035498;28;20045;-78
2020/12/24 00:36:55;;;;;;;0.90;0.32;;;;;;;8.94;85.05;98562.41;5035799;28;20045;-79
2020/12/24 00:39:21;;;;;;;0.63;0.43;;;;;;;9.03;84.71;98575.66;5036103;28;20413;-78
2020/12/24 00:41:48;;;;;;;0.73;0.63;;;;;;;8.98;82.67;98572.66;5035557;28;20068;-78
2020/12/24 00:44:14;;;;;;;0.40;0.40;;;;;;;9.16;79.02;98568.72;5034984;28;20091;-78
2020/12/24 00:46:40;;;;;;;0.95;0.52;;;;;;;9.32;77.04;98592.91;5035412;28;20716;-78
2020/12/24 00:49:07;;;;;;;0.43;0.40;;;;;;;9.39;76.25;98585.69;5035673;28;20045;-78
2020/12/24 00:51:33;;;;;;;1.17;0.47;;;;;;;9.34;74.26;98562.88;5035482;28;20041;-78
2020/12/24 00:53:59;;;;;;;0.40;0.40;;;;;;;9.50;73.81;98565.34;5035580;28;20049;-78
2020/12/24 00:56:25;;;;;;;0.43;0.43;;;;;;;9.41;74.56;98563.81;5034959;28;20050;-78
2020/12/24 00:59:06;;;;;;;0.30;0.30;;;;;;;9.30;70.80;98564.28;5035405;28;20072;-78
2020/12/24 01:01:33;;;;;;;0.98;0.80;;;;;;;9.29;71.20;98576.16;5033006;28;20049;-78
2020/12/24 01:03:59;;;;;;;1.17;0.50;;;;;;;9.23;67.37;98563.38;5035431;28;20049;-78
2020/12/24 01:06:25;;;;;;;0.22;0.22;;;;;;;9.34;65.20;98581.88;5035140;28;20046;-79
2020/12/24 01:08:51;;;;;;;2.08;0.45;;;;;;;9.25;68.23;98610.97;5034827;28;20045;-78
2020/12/24 01:11:18;;;;;;;0.30;0.20;;;;;;;9.17;67.54;98605.66;5035002;28;20046;-78
2020/12/24 01:13:44;;;;;;;3.92;0.40;;;;;;;9.12;67.35;98583.69;5015641;28;20080;-79
2020/12/24 01:16:11;;;;;;;2.50;0.40;;;;;;;9.05;66.96;98578.19;5014985;28;20054;-78
2020/12/24 01:18:37;;;;;;;0.93;0.40;;;;;;;8.96;68.39;98585.59;5028570;28;20057;-78
2020/12/24 01:21:03;;;;;;;2.92;1.33;;;;;;;8.82;68.38;98557.47;5034968;28;20543;-78
2020/12/24 01:23:30;;;;;;;0.30;0.30;;;;;;;8.91;68.33;98601.56;5034774;28;20057;-78
2020/12/24 01:25:56;;;;;;;0.43;0.40;;;;;;;8.90;67.46;98599.03;5034863;28;20383;-78
2020/12/24 01:28:22;;;;;;;0.80;0.35;;;;;;;8.83;67.72;98598.97;5035262;28;20072;-78
2020/12/24 01:30:48;;;;;;;0.63;0.57;;;;;;;8.91;68.68;98620.53;5034820;28;20045;-78
2020/12/24 01:33:15;;;;;;;0.25;0.25;;;;;;;8.93;66.62;98613.06;5014922;28;20054;-78
2020/12/24 01:35:43;;;;;;;1.45;0.30;;;;;;;8.96;66.86;98609.97;5014923;28;20054;-78
2020/12/24 01:38:09;;;;;;;0.20;0.20;;;;;;;8.80;65.38;98591.19;5014733;28;20528;-78
2020/12/24 01:40:36;;;;;;;4.28;0.52;;;;;;;8.85;67.36;98630.28;5014909;28;20061;-78
2020/12/24 01:43:02;;;;;;;0.22;0.22;;;;;;;8.87;67.34;98621.97;5029960;28;20045;-77
2020/12/24 01:45:28;;;;;;;0.50;0.40;;;;;;;8.80;67.17;98632.69;5033952;28;20053;-78
2020/12/24 01:47:54;;;;;;;3.10;0.40;;;;;;;8.67;68.63;98625.22;5034153;28;20053;-78
2020/12/24 01:50:21;;;;;;;0.70;0.30;;;;;;;8.72;68.74;98635.50;5034510;28;20050;-78
2020/12/24 01:52:49;;;;;;;0.20;0.20;;;;;;;8.67;71.14;98636.06;5034657;28;20452;-78
2020/12/24 01:55:15;;;;;;;0.52;0.30;;;;;;;8.61;70.84;98644.06;5034202;28;20103;-78
2020/12/24 01:57:42;;;;;;;2.45;0.73;;;;;;;8.62;70.75;98664.72;5034124;28;20501;-77
2020/12/24 02:00:10;;;;;;;0.30;0.30;;;;;;;8.54;74.38;98676.50;5034100;28;20052;-78
2020/12/24 02:02:36;;;;;;;1.73;0.20;;;;;;;8.31;74.45;98666.50;5034294;28;20456;-80
2020/12/24 02:05:03;;;;;;;0.45;0.30;;;;;;;8.16;75.47;98681.88;5033903;28;20387;-78
2020/12/24 02:07:31;;;;;;;3.65;0.30;;;;;;;8.12;74.84;98677.84;5033524;28;20104;-78
2020/12/24 02:09:57;;;;;;;2.10;0.40;;;;;;;8.11;74.95;98658.06;5033397;28;20087;-78
2020/12/24 02:12:23;;;;;;;3.30;0.47;;;;;;;8.12;75.53;98639.94;5033974;28;20053;-78
2020/12/24 02:14:49;;;;;;;1.23;0.30;;;;;;;8.05;76.53;98622.72;5033509;28;20417;-78
2020/12/24 02:17:15;;;;;;;1.13;0.32;;;;;;;7.96;79.20;98587.63;5032984;28;20052;-78
2020/12/24 02:19:42;;;;;;;0.22;0.22;;;;;;;7.86;80.53;98581.63;5032781;28;20050;-78
2020/12/24 02:22:10;;;;;;;1.75;1.20;;;;;;;7.77;80.92;98582.72;5033722;28;20046;-78
2020/12/24 02:24:36;;;;;;;1.20;0.32;;;;;;;7.63;81.83;98565.38;5033145;28;20053;-78
2020/12/24 02:27:03;;;;;;;1.92;0.40;;;;;;;7.66;81.96;98583.94;5033234;28;20444;-78
2020/12/24 02:29:30;;;;;;;0.22;0.22;;;;;;;7.62;82.47;98590.75;5033110;28;20052;-78
2020/12/24 02:31:56;;;;;;;0.47;0.30;;;;;;;7.61;82.95;98589.91;5033386;28;20045;-78
2020/12/24 02:34:22;;;;;;;1.13;0.47;;;;;;;7.72;82.88;98580.53;5033006;28;20049;-78
2020/12/24 02:36:49;;;;;;;1.40;0.30;;;;;;;7.70;82.82;98546.56;5032160;28;20049;-78
2020/12/24 02:39:16;;;;;;;0.20;0.20;;;;;;;7.67;83.36;98547.75;5033086;28;20387;-78
2020/12/24 02:41:42;;;;;;;0.20;0.20;;;;;;;7.65;82.97;98533.59;5033413;28;20053;-78
2020/12/24 02:44:08;;;;;;;3.38;0.35;;;;;;;7.58;83.25;98541.56;5032971;28;20045;-78
2020/12/24 02:46:35;;;;;;;0.35;0.35;;;;;;;7.56;83.65;98537.38;5033100;28;20417;-78
2020/12/24 02:49:01;;;;;;;1.65;0.47;;;;;;;7.63;84.01;98530.19;5033295;28;20049;-78
2020/12/24 02:51:28;;;;;;;0.75;0.40;;;;;;;7.66;83.65;98539.81;5033692;28;20045;-78
2020/12/24 02:53:54;;;;;;;3.03;0.30;;;;;;;7.62;83.87;98529.38;5033274;28;20049;-78
2020/12/24 02:56:21;;;;;;;0.63;0.30;;;;;;;7.59;84.12;98537.84;5033143;28;20049;-78
2020/12/24 02:58:47;;;;;;;0.68;0.43;;;;;;;7.55;84.82;98536.53;5033169;28;20053;-78
2020/12/24 03:01:13;;;;;;;5.45;0.50;;;;;;;7.51;83.90;98496.50;5033217;28;20058;-78
2020/12/24 03:03:39;;;;;;;1.45;0.40;;;;;;;7.62;83.48;98518.56;5033199;28;20409;-79
2020/12/24 03:06:06;;;;;;;1.75;0.35;;;;;;;7.52;84.58;98530.66;5032618;28;20073;-78
2020/12/24 03:08:32;;;;;;;0.88;0.50;;;;;;;7.33;84.63;98518.44;5032955;28;20438;-78
2020/12/24 03:10:58;;;;;;;0.50;0.32;;;;;;;7.36;85.36;98539.72;5033021;28;20052;-79
2020/12/24 03:13:25;;;;;;;1.77;0.40;;;;;;;7.31;85.12;98520.50;5033228;28;20049;-79
2020/12/24 03:15:52;;;;;;;0.38;0.30;;;;;;;7.22;85.78;98547.56;5033191;28;20112;-79
2020/12/24 03:18:18;;;;;;;0.47;0.40;;;;;;;7.25;85.62;98535.56;5032864;28;20045;-79
2020/12/24 03:20:44;;;;;;;0.88;0.40;;;;;;;7.24;86.28;98531.16;5037183;28;20057;-78
2020/12/24 03:23:10;;;;;;;0.43;0.30;;;;;;;7.31;85.51;98545.66;5037150;28;20057;-79
2020/12/24 03:25:36;;;;;;;2.03;0.50;;;;;;;7.36;85.47;98559.50;5037188;28;20054;-78
2020/12/24 03:28:03;;;;;;;0.30;0.30;;;;;;;7.36;85.44;98545.97;5036968;28;20096;-78
2020/12/24 03:30:30;;;;;;;0.52;0.45;;;;;;;7.31;85.01;98528.59;5037198;28;20095;-79
2020/12/24 03:32:56;;;;;;;1.90;0.35;;;;;;;7.37;85.27;98534.13;5037063;28;20482;-79
2020/12/24 03:35:22;;;;;;;3.55;0.50;;;;;;;7.41;85.47;98515.69;5036754;28;20049;-78
2020/12/24 03:37:48;;;;;;;0.47;0.38;;;;;;;7.33;85.10;98510.31;5036734;28;20489;-78
2020/12/24 03:40:15;;;;;;;0.38;0.30;;;;;;;7.37;84.42;98503.53;5036531;28;20056;-79
2020/12/24 03:42:41;;;;;;;3.42;0.50;;;;;;;7.43;83.60;98519.03;5036891;28;20056;-78
2020/12/24 03:45:07;;;;;;;3.13;0.57;;;;;;;7.39;83.12;98520.41;5036288;28;20057;-78
2020/12/24 03:47:34;;;;;;;0.93;0.30;;;;;;;7.41;81.44;98516.53;5036830;28;20057;-78
2020/12/24 03:50:00;;;;;;;3.70;0.63;;;;;;;7.36;80.10;98508.13;5036548;28;20068;-78
2020/12/24 03:52:26;;;;;;;0.93;0.30;;;;;;;7.35;80.10;98503.72;5036353;28;20512;-78
2020/12/24 03:54:53;;;;;;;0.30;0.30;;;;;;;7.37;78.28;98511.66;5036698;28;20046;-78
2020/12/24 03:57:19;;;;;;;0.32;0.30;;;;;;;7.27;79.29;98498.34;5036467;28;20551;-78
2020/12/24 03:59:45;;;;;;;7.45;0.60;;;;;;;7.37;78.04;98503.53;5036451;28;20052;-78
2020/12/24 04:02:11;;;;;;;0.35;0.35;;;;;;;7.32;79.22;98501.38;5036697;28;20045;-78
2020/12/24 04:04:38;;;;;;;0.68;0.35;;;;;;;7.34;79.01;98502.03;5035972;28;20045;-78
2020/12/24 04:07:05;;;;;;;1.17;0.32;;;;;;;7.24;79.72;98496.00;5036427;28;20049;-78
2020/12/24 04:09:31;;;;;;;0.55;0.40;;;;;;;7.31;79.11;98505.09;5036387;28;20541;-78
2020/12/24 04:11:57;;;;;;;0.32;0.30;;;;;;;7.25;80.00;98497.72;5036045;28;20060;-78
2020/12/24 04:14:23;;;;;;;1.67;0.50;;;;;;;7.37;79.72;98520.59;5036275;28;20053;-78
2020/12/24 04:16:49;;;;;;;2.75;0.38;;;;;;;7.28;80.04;98524.38;5035996;28;20053;-78
2020/12/24 04:19:15;;;;;;;4.07;1.30;;;;;;;7.21;79.57;98543.19;5035972;28;20045;-78
2020/12/24 04:21:42;;;;;;;4.35;0.40;;;;;;;7.22;80.06;98534.03;5030481;28;20042;-78
2020/12/24 04:24:09;;;;;;;0.88;0.82;;;;;;;7.17;80.60;98519.41;5027358;28;20053;-78
2020/12/24 04:26:35;;;;;;;0.25;0.25;;;;;;;7.15;80.71;98511.47;5036088;28;20103;-78
2020/12/24 04:29:01;;;;;;;0.88;0.30;;;;;;;7.16;81.21;98518.53;5035556;28;20042;-78
2020/12/24 04:31:27;;;;;;;0.60;0.28;;;;;;;7.06;81.13;98516.09;5034999;28;20052;-78
2020/12/24 04:33:53;;;;;;;0.30;0.30;;;;;;;7.13;81.29;98523.47;5035473;28;20046;-78
2020/12/24 04:36:20;;;;;;;1.42;0.40;;;;;;;7.14;81.18;98533.28;5035827;28;20072;-78
2020/12/24 04:38:47;;;;;;;1.17;0.40;;;;;;;6.98;81.58;98518.00;5035517;28;20053;-78
2020/12/24 04:41:13;;;;;;;0.20;0.20;;;;;;;7.00;81.87;98534.84;5035730;28;20076;-78
2020/12/24 04:43:39;;;;;;;1.08;0.30;;;;;;;6.94;81.59;98528.31;5035216;28;20401;-78
2020/12/24 04:46:07;;;;;;;0.22;0.20;;;;;;;6.96;82.13;98520.03;5035722;28;20053;-78
2020/12/24 04:48:34;;;;;;;1.65;0.45;;;;;;;6.98;82.05;98513.41;5035201;28;20053;-78
2020/12/24 04:51:01;;;;;;;1.10;0.90;;;;;;;6.95;81.51;98505.66;5035581;28;20045;-78
2020/12/24 04:53:27;;;;;;;0.38;0.30;;;;;;;6.94;81.82;98503.13;5035486;28;20585;-78
2020/12/24 04:55:55;;;;;;;4.55;0.30;;;;;;;6.89;81.72;98519.88;5035135;28;20053;-78
2020/12/24 04:58:22;;;;;;;0.80;0.40;;;;;;;6.86;81.96;98514.84;5035674;28;20050;-78
2020/12/24 05:00:51;;;;;;;1.38;0.32;;;;;;;6.88;81.75;98507.38;5035423;28;20046;-78
2020/12/24 05:03:17;;;;;;;2.45;0.45;;;;;;;6.91;81.31;98515.16;5035553;28;20049;-77
2020/12/24 05:05:44;;;;;;;1.20;0.45;;;;;;;6.86;81.48;98512.13;5035361;28;20046;-78
2020/12/24 05:08:10;;;;;;;0.93;0.40;;;;;;;6.84;81.51;98514.19;5035011;28;20046;-78
2020/12/24 05:10:38;;;;;;;0.45;0.30;;;;;;;6.83;81.17;98507.91;5035310;28;20045;-78
2020/12/24 05:13:17;;;;;;;0.57;0.57;;;;;;;6.82;81.13;98506.25;5035300;28;20052;-78
2020/12/24 05:15:43;;;;;;;0.95;0.40;;;;;;;6.79;80.80;98500.34;5034880;28;20050;-78
2020/12/24 05:18:17;;;;;;;2.65;0.50;;;;;;;6.81;80.50;98484.81;5035069;28;20128;-78
2020/12/24 05:20:44;;;;;;;1.02;0.40;;;;;;;6.76;79.84;98495.31;5034622;28;20056;-78
2020/12/24 05:23:12;;;;;;;2.10;0.50;;;;;;;6.78;80.42;98509.50;5034674;28;20041;-78
2020/12/24 05:25:39;;;;;;;0.57;0.25;;;;;;;6.74;80.53;98506.28;5033249;28;20051;-78
2020/12/24 05:28:06;;;;;;;1.65;0.52;;;;;;;6.71;79.99;98514.75;5032110;28;20107;-78
2020/12/24 05:30:33;;;;;;;1.33;0.45;;;;;;;6.73;77.39;98515.44;5030677;28;20429;-77
2020/12/24 05:33:00;;;;;;;2.15;0.82;;;;;;;6.73;77.76;98507.31;5032459;28;20076;-78
2020/12/24 05:35:28;;;;;;;5.57;0.80;;;;;;;6.72;78.45;98506.47;5031702;28;20045;-78
2020/12/24 05:37:55;;;;;;;0.77;0.50;;;;;;;6.67;78.30;98516.09;5030917;28;20045;-78
2020/12/24 05:40:23;;;;;;;0.70;0.40;;;;;;;6.66;78.47;98507.16;5032344;28;20448;-78
2020/12/24 05:42:51;;;;;;;3.88;0.70;;;;;;;6.68;79.07;98504.28;5031224;28;20081;-78
2020/12/24 05:45:18;;;;;;;3.05;0.43;;;;;;;6.68;79.83;98504.28;5031446;28;20165;-78
2020/12/24 05:47:46;;;;;;;1.45;0.32;;;;;;;6.68;80.20;98499.72;5029456;28;20056;-78
2020/12/24 05:50:25;;;;;;;0.47;0.45;;;;;;;6.53;80.50;98488.84;5031804;28;20041;-77
2020/12/24 05:53:09;;;;;;;0.63;0.50;;;;;;;6.55;81.33;98492.19;5031868;28;20479;-77
2020/12/24 05:55:36;;;;;;;4.40;1.00;;;;;;;6.46;81.91;98473.50;5030933;28;20069;-78
2020/12/24 05:58:02;;;;;;;2.13;0.70;;;;;;;6.54;82.02;98468.06;5033476;28;20061;-78
2020/12/24 06:00:33;;;;;;;0.45;0.32;;;;;;;6.32;82.49;98453.47;5031799;28;20486;-78
2020/12/24 06:03:15;;;;;;;3.20;0.73;;;;;;;6.45;82.67;98478.06;5032054;28;20068;-78
2020/12/24 06:06:04;;;;;;;0.38;0.38;;;;;;;6.41;83.04;98476.72;5031165;28;20084;-78
2020/12/24 06:08:32;;;;;;;1.90;0.50;;;;;;;6.36;83.67;98469.16;5015419;28;20041;-78
2020/12/24 06:11:03;;;;;;;0.52;0.43;;;;;;;6.32;84.18;98465.13;5032173;28;20403;-78
2020/12/24 06:13:41;;;;;;;1.38;0.93;;;;;;;6.25;83.86;98456.03;5032026;28;20107;-78
2020/12/24 06:16:09;;;;;;;1.52;0.60;;;;;;;6.31;83.89;98451.81;5031073;28;20057;-78
2020/12/24 06:18:38;;;;;;;1.50;0.70;;;;;;;6.26;83.66;98440.69;5032441;28;20056;-78
2020/12/24 06:21:13;;;;;;;1.17;0.65;;;;;;;6.37;83.22;98438.44;5031866;28;20536;-78
2020/12/24 06:23:44;;;;;;;1.75;0.47;;;;;;;6.32;83.29;98437.28;5031725;28;20426;-78
2020/12/24 06:26:12;;;;;;;0.35;0.35;;;;;;;6.26;82.94;98419.91;5032064;28;20041;-78
2020/12/24 06:28:40;;;;;;;2.42;0.40;;;;;;;6.34;83.32;98428.00;5031499;28;20136;-78
2020/12/24 06:31:08;;;;;;;0.82;0.50;;;;;;;6.31;82.81;98425.66;5031632;28;20081;-78
2020/12/24 06:33:34;;;;;;;2.22;0.40;;;;;;;6.37;82.71;98427.66;5031780;28;20056;-78
2020/12/24 06:36:01;;;;;;;0.43;0.43;;;;;;;6.41;82.86;98425.41;5033008;28;20494;-78
2020/12/24 06:38:43;;;;;;;0.52;0.40;;;;;;;6.42;82.31;98424.41;5032208;28;20226;-78
2020/12/24 06:41:22;;;;;;;0.30;0.30;;;;;;;6.43;82.06;98419.84;5031374;28;20086;-78
2020/12/24 06:43:48;;;;;;;0.52;0.52;;;;;;;6.43;81.62;98409.03;5026017;28;20049;-78
2020/12/24 06:46:15;;;;;;;1.25;0.30;;;;;;;6.41;82.06;98416.50;5025805;28;20038;-78
2020/12/24 06:48:41;;;;;;;4.35;0.55;;;;;;;6.48;81.49;98417.47;5030519;28;20045;-78
2020/12/24 06:51:12;;;;;;;1.27;0.55;;;;;;;6.44;81.32;98408.88;5030129;28;20087;-77
2020/12/24 06:53:39;;;;;;;1.52;0.82;;;;;;;6.48;81.49;98417.47;5031916;28;20049;-78
2020/12/24 06:56:24;;;;;;;0.60;0.40;;;;;;;6.49;80.88;98406.50;5031131;28;20045;-78
2020/12/24 06:58:56;;;;;;;0.82;0.57;;;;;;;6.54;80.64;98405.97;5031227;28;20095;-78
2020/12/24 07:01:24;;;;;;;1.90;0.95;;;;;;;6.57;80.43;98399.38;5032173;28;20046;-78
2020/12/24 07:03:52;;;;;;;1.65;0.43;;;;;;;6.59;80.48;98408.13;5033089;28;20493;-78
2020/12/24 07:06:55;;;;;;;0.50;0.50;;;;;;;6.58;80.04;98407.28;5032878;28;20095;-78
2020/12/24 07:09:41;;;;;;;2.00;0.55;;;;;;;6.61;80.17;98406.94;5030923;28;20045;-77
2020/12/24 07:12:07;;;;;;;5.03;0.75;;;;;;;6.60;80.17;98401.72;5031056;28;20060;-78
2020/12/24 07:14:35;;;;;;;0.90;0.73;;;;;;;6.63;80.13;98399.47;5030333;28;20429;-77
2020/12/24 07:17:08;;;;;;;2.10;1.45;;;;;;;6.62;79.61;98395.09;5030609;28;20068;-78
2020/12/24 07:19:35;;;;;;;0.98;0.60;;;;;;;6.61;79.90;98409.63;5030804;28;20387;-78
2020/12/24 07:22:06;;;;;;;4.15;0.80;;;;;;;6.68;79.53;98404.34;5031519;28;20080;-78
2020/12/24 07:24:33;;;;;;;4.82;0.95;;;;;;;6.61;79.71;98404.22;5030800;28;20053;-77
2020/12/24 07:27:01;;;;;;;2.65;0.73;;;;;;;6.75;79.62;98412.59;5030801;28;20049;-78
2020/12/24 07:29:30;;;;;;;1.63;0.45;;;;;;;6.61;79.38;98393.44;5031300;28;20100;-78
2020/12/24 07:31:57;;;;;;;2.30;0.60;;;;;;;6.65;80.47;98410.09;5030453;28;20132;-78
2020/12/24 07:34:24;;;;;;;4.32;0.60;;;;;;;6.65;80.04;98392.03;5031961;28;20481;-78
2020/12/24 07:36:51;;;;;;;3.22;0.60;;;;;;;6.75;80.26;98409.91;5032496;28;20482;-78
2020/12/24 07:39:17;;;;;;;5.97;0.90;;;;;;;6.57;80.42;98388.56;5033040;28;20564;-80
2020/12/24 07:41:44;;;;;;;7.20;0.55;;;;;;;6.71;79.48;98404.84;5031668;28;20409;-78
2020/12/24 07:44:11;;;;;;;5.88;0.82;;;;;;;6.69;80.11;98401.47;5030572;28;20053;-78
2020/12/24 07:46:38;;;;;;;3.75;1.15;;;;;;;6.63;80.39;98394.09;5030913;28;20092;-78
2020/12/24 07:49:05;;;;;;;5.47;0.63;;;;;;;6.62;80.39;98386.16;5031193;28;20411;-78
2020/12/24 07:51:32;;;;;;;7.43;0.90;;;;;;;6.68;81.28;98398.94;5030353;28;20046;-78
2020/12/24 07:54:06;;;;;;;2.35;0.50;;;;;;;6.65;81.05;98399.31;5030640;28;20057;-79
2020/12/24 07:56:33;;;;;;;4.45;1.02;;;;;;;6.69;81.74;98397.94;5030700;28;20050;-78
2020/12/24 07:59:01;;;;;;;1.35;1.02;;;;;;;6.65;80.84;98400.13;5031043;28;20112;-78
2020/12/24 08:01:28;;;;;;;4.00;0.68;;;;;;;6.64;81.20;98398.47;5030986;28;20107;-79
2020/12/24 08:03:59;;;;;;;4.65;1.00;;;;;;;6.69;80.95;98403.34;5032333;28;20391;-79
2020/12/24 08:06:26;;;;;;;3.97;0.85;;;;;;;6.66;80.27;98399.13;5033707;28;20046;-78
2020/12/24 08:08:53;;;;;;;2.33;0.85;;;;;;;6.64;81.39;98392.22;5036049;28;20146;-78
2020/12/24 08:11:20;;;;;;;2.05;0.70;;;;;;;6.62;80.04;98397.78;5035530;28;20548;-78
2020/12/24 08:13:46;;;;;;;4.15;0.60;;;;;;;6.57;80.39;98386.69;5035588;28;20402;-78
2020/12/24 08:16:13;;;;;;;5.85;1.27;;;;;;;6.58;80.63;98384.81;5035779;28;20049;-78
2020/12/24 08:18:47;;;;;;;3.53;1.30;;;;;;;6.64;80.07;98384.97;5035868;28;20095;-78
2020/12/24 08:21:22;;;;;;;7.78;0.90;;;;;;;6.60;79.18;98396.31;5036301;28;20045;-78
2020/12/24 08:23:52;;;;;;;5.80;0.90;;;;;;;6.62;78.27;98397.78;5035086;28;20394;-78
2020/12/24 08:26:19;;;;;;;2.63;0.88;;;;;;;6.63;78.39;98402.19;5035704;28;20057;-78
2020/12/24 08:28:52;;;;;;;1.25;0.70;;;;;;;6.58;77.96;98392.94;5036388;28;20050;-77
2020/12/24 08:31:19;;;;;;;4.72;1.45;;;;;;;6.61;77.20;98389.88;5035263;28;20041;-77
2020/12/24 08:33:50;;;;;;;3.65;0.88;;;;;;;6.70;77.15;98408.56;5035302;28;20041;-78
2020/12/24 08:36:18;;;;;;;1.45;0.85;;;;;;;6.73;75.49;98410.06;5015791;28;20053;-77
2020/12/24 08:38:45;;;;;;;7.78;1.00;;;;;;;6.75;75.14;98408.03;5025218;28;20107;-77
2020/12/24 08:41:21;;;;;;;3.53;0.98;;;;;;;6.77;74.93;98402.44;5035544;28;20126;-77
2020/12/24 08:43:53;;;;;;;3.28;0.65;;;;;;;6.79;73.78;98401.25;5033517;28;20108;-78
2020/12/24 08:46:19;;;;;;;3.58;1.10;;;;;;;6.75;74.28;98385.59;5034757;28;20080;-77
2020/12/24 08:48:45;;;;;;;1.80;0.80;;;;;;;6.81;74.81;98409.19;5034850;28;20056;-78
2020/12/24 08:51:14;;;;;;;4.28;1.33;;;;;;;6.82;74.85;98408.13;5033757;28;20131;-77
2020/12/24 08:53:40;;;;;;;2.83;0.80;;;;;;;6.78;74.24;98404.97;5035409;28;20375;-77
2020/12/24 08:56:14;;;;;;;2.70;1.00;;;;;;;6.79;74.71;98412.06;5035082;28;20053;-77
2020/12/24 08:58:50;;;;;;;2.63;1.00;;;;;;;6.79;74.59;98409.34;5033282;28;20056;-78
2020/12/24 09:01:17;;;;;;;3.03;0.60;;;;;;;6.80;74.72;98411.00;5033180;28;20060;-77
2020/12/24 09:03:44;;;;;;;9.80;0.73;;;;;;;6.83;73.56;98404.41;5034209;28;20045;-78
2020/12/24 09:06:12;;;;;;;2.03;0.70;;;;;;;6.80;74.32;98396.69;5035343;28;20057;-77
2020/12/24 09:08:40;;;;;;;2.20;0.90;;;;;;;6.79;73.69;98406.66;5035406;28;20122;-77
2020/12/24 09:11:07;;;;;;;2.40;0.73;;;;;;;6.75;74.02;98404.50;5035377;28;20077;-77
2020/12/24 09:13:33;;;;;;;0.75;0.38;;;;;;;6.71;73.45;98410.25;5035076;28;20038;-79
2020/12/24 09:16:10;;;;;;;1.63;0.50;;;;;;;6.73;74.16;98420.88;5034994;28;20547;-80
2020/12/24 09:18:36;;;;;;;1.98;0.70;;;;;;;6.73;74.27;98431.69;5032904;28;20104;-80
2020/12/24 09:21:10;;;;;;;0.82;0.63;;;;;;;6.69;74.58;98428.47;5032828;28;20057;-79
2020/12/24 09:23:36;;;;;;;5.10;0.70;;;;;;;6.63;75.02;98434.59;5033300;28;20113;-79
2020/12/24 09:26:03;;;;;;;0.63;0.52;;;;;;;6.61;73.82;98420.44;5033225;28;20049;-79
2020/12/24 09:28:30;;;;;;;2.75;0.50;;;;;;;6.63;73.53;98413.00;5032803;28;20054;-79
2020/12/24 09:30:58;;;;;;;0.95;0.40;;;;;;;6.60;72.86;98405.25;5032757;28;20296;-79
2020/12/24 09:33:25;;;;;;;1.33;0.60;;;;;;;6.68;73.68;98415.97;5032474;28;20382;-79
2020/12/24 09:35:51;;;;;;;0.70;0.52;;;;;;;6.52;73.63;98403.44;5032352;28;20429;-79
2020/12/24 09:38:17;;;;;;;2.80;1.10;;;;;;;6.60;73.85;98412.50;5032394;28;20061;-79
2020/12/24 09:40:44;;;;;;;2.33;0.68;;;;;;;6.71;73.53;98428.31;5032321;28;20494;-78
2020/12/24 09:43:11;;;;;;;1.95;0.68;;;;;;;6.66;72.98;98428.00;5032390;28;20058;-79
2020/12/24 09:45:38;;;;;;;2.72;0.50;;;;;;;6.61;73.29;98415.03;5030856;28;20045;-79
2020/12/24 09:48:04;;;;;;;1.42;0.70;;;;;;;6.70;73.17;98419.38;5032127;28;20053;-79
2020/12/24 09:50:31;;;;;;;0.50;0.50;;;;;;;6.51;72.79;98401.75;5032599;28;20046;-79
2020/12/24 09:52:57;;;;;;;1.08;0.60;;;;;;;6.70;73.17;98432.03;5032265;28;20131;-78
2020/12/24 09:55:24;;;;;;;3.67;0.82;;;;;;;6.54;73.09;98408.66;5031820;28;20060;-79
2020/12/24 09:57:50;;;;;;;0.80;0.38;;;;;;;6.54;74.79;98423.00;5032297;28;20049;-79
2020/12/24 10:00:17;;;;;;;1.40;0.57;;;;;;;6.70;74.74;98435.56;5032595;28;20053;-79
2020/12/24 10:02:43;;;;;;;1.35;0.52;;;;;;;6.72;74.53;98430.81;5032231;28;20096;-79
2020/12/24 10:05:10;;;;;;;0.45;0.30;;;;;;;6.73;73.74;98439.78;5031639;28;20049;-79
2020/12/24 10:07:36;;;;;;;0.52;0.47;;;;;;;6.70;74.07;98435.56;5032294;28;20049;-79
2020/12/24 10:10:03;;;;;;;1.10;0.70;;;;;;;6.77;74.40;98434.84;5032072;28;20045;-79
2020/12/24 10:12:30;;;;;;;2.60;0.60;;;;;;;6.82;74.60;98437.84;5031494;28;20045;-79
2020/12/24 10:14:56;;;;;;;3.20;0.50;;;;;;;6.84;74.33;98427.72;5031917;28;20084;-79
2020/12/24 10:17:24;;;;;;;2.42;0.65;;;;;;;6.78;73.89;98423.88;5032315;28;20049;-79
2020/12/24 10:19:53;;;;;;;4.47;0.93;;;;;;;6.65;74.99;98410.09;5032176;28;20041;-79
2020/12/24 10:22:19;;;;;;;2.72;0.60;;;;;;;6.88;75.22;98424.50;5032814;28;20049;-79
2020/12/24 10:24:45;;;;;;;1.35;0.68;;;;;;;6.83;75.67;98424.16;5033016;28;20045;-78
2020/12/24 10:27:13;;;;;;;1.38;0.50;;;;;;;6.68;75.70;98401.66;5032920;28;20058;-79
2020/12/24 10:29:39;;;;;;;1.25;0.60;;;;;;;6.78;76.54;98414.94;5031243;28;20446;-81
2020/12/24 10:32:05;;;;;;;1.95;0.60;;;;;;;6.82;75.58;98418.94;5028803;28;20517;-79
2020/12/24 10:34:32;;;;;;;5.10;0.70;;;;;;;6.81;76.46;98418.13;5030264;28;20049;-79
2020/12/24 10:37:00;;;;;;;7.20;0.85;;;;;;;6.71;76.52;98388.66;5035734;28;20053;-79
2020/12/24 10:39:27;;;;;;;0.75;0.70;;;;;;;6.91;76.41;98415.19;5032281;28;20049;-79
2020/12/24 10:41:53;;;;;;;1.83;0.70;;;;;;;6.96;75.24;98412.78;5033465;28;20555;-79
2020/12/24 10:44:19;;;;;;;4.38;0.90;;;;;;;7.04;76.08;98419.97;5032252;28;20045;-79
2020/12/24 10:46:46;;;;;;;1.85;1.02;;;;;;;7.06;75.59;98417.91;5033403;28;20049;-80
2020/12/24 10:49:13;;;;;;;1.10;1.00;;;;;;;7.16;75.33;98410.41;5032603;28;20413;-79
2020/12/24 10:51:40;;;;;;;1.52;0.65;;;;;;;7.17;74.94;98413.97;5032570;28;20125;-79
2020/12/24 10:54:06;;;;;;;2.20;0.90;;;;;;;7.18;74.58;98413.78;5033316;28;20057;-79
2020/12/24 10:56:32;;;;;;;1.10;0.75;;;;;;;7.26;74.81;98408.31;5032943;28;20103;-79
2020/12/24 10:58:59;;;;;;;0.80;0.30;;;;;;;7.30;74.05;98403.41;5033076;28;20061;-79
2020/12/24 11:01:25;;;;;;;0.40;0.40;;;;;;;7.24;73.70;98402.25;5033150;28;20046;-79
2020/12/24 11:03:51;;;;;;;1.35;0.47;;;;;;;7.39;74.04;98406.84;5032913;28;20493;-79
2020/12/24 11:06:19;;;;;;;0.70;0.70;;;;;;;7.47;73.74;98401.38;5032605;28;20111;-79
2020/12/24 11:08:47;;;;;;;1.17;0.57;;;;;;;7.46;73.78;98374.50;5022713;28;20050;-79
2020/12/24 11:11:14;;;;;;;0.52;0.38;;;;;;;7.62;73.00;98385.16;5029627;28;20119;-79
2020/12/24 11:13:41;;;;;;;1.15;0.55;;;;;;;7.76;73.11;98399.72;5034409;28;20052;-79
2020/12/24 11:16:08;;;;;;;0.55;0.30;;;;;;;7.67;71.33;98384.59;5027503;28;20152;-79
2020/12/24 11:18:34;;;;;;;0.57;0.57;;;;;;;7.83;72.69;98391.69;5029979;28;20200;-79
2020/12/24 11:21:00;;;;;;;0.90;0.50;;;;;;;7.86;71.63;98399.44;5030624;28;20056;-79
2020/12/24 11:23:27;;;;;;;0.55;0.45;;;;;;;7.78;72.27;98390.41;5030862;28;20054;-80
2020/12/24 11:25:56;;;;;;;0.60;0.30;;;;;;;7.70;73.47;98395.88;5030692;28;20478;-79
2020/12/24 11:28:22;;;;;;;5.43;0.52;;;;;;;7.68;73.96;98384.41;5031809;28;20046;-79
2020/12/24 11:30:48;;;;;;;1.83;0.68;;;;;;;7.86;72.79;98402.13;5031970;28;20045;-79
2020/12/24 11:33:15;;;;;;;0.45;0.45;;;;;;;7.88;72.87;98400.94;5028615;28;20084;-80
2020/12/24 11:35:41;;;;;;;1.55;0.50;;;;;;;7.83;72.42;98388.97;5024775;28;20049;-79
2020/12/24 11:38:07;;;;;;;0.40;0.40;;;;;;;7.96;71.79;98392.75;5032723;28;20046;-80
2020/12/24 11:40:33;;;;;;;2.22;0.52;;;;;;;8.03;72.42;98386.56;5021794;28;20068;-80
2020/12/24 11:43:01;;;;;;;1.33;0.40;;;;;;;8.03;71.90;98392.00;5025070;28;20053;-80